首页
METAR-TAF:

METAR-TAF

机场 :

帕波, 匈牙利

纬度: 47-12N, 经度: 017-30E, 海拔: 145米

当前天气观测

该预报发布于38分钟前的07:15 UTC
风速4节,风向
温度 21°C
湿度 88%
气压 1013 hPa
能见度10公里或以上
散云层高于4700英尺
多云层高于8300英尺

METAR: LHPA 150715Z 36004KT 9999 SCT047 BKN083 21/19 Q1013 NOSIG RMK BLU

时间: 09:53 (07:53 UTC)

预报

该预报发布于2小时和38分钟前的05:15 UTC
预报有效从15日的 06点(UTC)到 16日的 06点(UTC)
风速3节,风向多变
能见度10公里或以上
1500米以下无云,无积雨云
几率 30% :
短暂存在
从 15日的 06点(UTC)到 15日的 08点(UTC)
能见度10公里或以上
散云层高于3000英尺, 塔状积云.
多云层高于7000英尺
小阵雨
成为
从 15日的 08点(UTC)到 15日的 10点(UTC)
风速7节,风向北转西北
能见度10公里或以上
散云层高于3000英尺
多云层高于8000英尺
几率 40% :
短暂存在
从 15日的 12点(UTC)到 15日的 20点(UTC)
风速16节,风向多变,有时为26节阵风
能見度: 6000
散云层高于3000英尺, 积雨云.
多云层高于4000英尺
阵雨, 雷暴, 雨
几率 30% :
短暂存在
从 16日的 00点(UTC)到 16日的 06点(UTC)
能見度: 6000
散云层高于1500英尺
多云层高于3000英尺, 积雨云.
多云层高于7000英尺
阵雨, 雷暴, 雨

TAF: LHPA 150515Z 1506/1606 VRB03KT CAVOK PROB30 TEMPO 1506/1508 9999 -SHRA SCT030TCU BKN070 BECMG 1508/1510 33007KT 9999 SCT030 BKN080 PROB40 TEMPO 1512/1520 VRB16G26KT 6000 SHRA TSRA SCT030CB BKN040 PROB30 TEMPO 1600/1606 6000 SHRA TSRA SCT015 BKN030CB BKN070

超过4000个机场的气象观测和天气预报(METAR&TAF报告)。

可查询的气象台以黄色和红色小点在地图上表示。

将鼠标移到小点上方,可查看气象台名称。

然后点击查看天气观测和预报。

如需切换地图:点击带黑十字的绿色按钮放大地图;点击带横线的绿色按钮缩小地图;或者点击绿色箭头查看邻近地区的地图。


METAR-TAF: